createdAt,value
2022-12-31T00:04:38.393Z,4.04
2022-12-31T00:09:41.369Z,4.13
2022-12-31T00:14:44.193Z,4.18
2022-12-31T00:19:47.190Z,4.28
2022-12-31T00:24:49.928Z,4.34
2022-12-31T00:29:52.667Z,4.37
2022-12-31T00:34:55.398Z,4.39
2022-12-31T00:39:58.225Z,4.45
2022-12-31T00:45:00.977Z,4.48
2022-12-31T00:50:03.943Z,4.54
2022-12-31T00:55:07.558Z,4.61
2022-12-31T01:00:11.775Z,4.65
2022-12-31T01:05:14.651Z,4.74
2022-12-31T01:10:37.351Z,4.84
2022-12-31T01:15:40.153Z,4.92
2022-12-31T01:20:44.440Z,4.98
2022-12-31T01:25:47.200Z,5.01
2022-12-31T01:30:50.028Z,5.02
2022-12-31T01:35:52.994Z,5.07
2022-12-31T01:40:55.748Z,5.15
2022-12-31T01:45:58.567Z,5.23
2022-12-31T01:51:01.964Z,5.28
2022-12-31T01:56:06.587Z,5.31
2022-12-31T02:01:10.219Z,5.33
2022-12-31T02:06:29.281Z,5.39
2022-12-31T02:11:36.611Z,5.42
2022-12-31T02:16:53.064Z,5.47
2022-12-31T02:22:23.671Z,5.52
2022-12-31T02:27:39.465Z,5.57
2022-12-31T02:32:51.579Z,5.63
2022-12-31T02:38:01.034Z,5.70
2022-12-31T02:43:03.889Z,5.82
2022-12-31T02:48:20.952Z,5.91
2022-12-31T02:53:44.461Z,5.94
2022-12-31T02:59:12.309Z,5.92
2022-12-31T03:04:32.089Z,5.90
2022-12-31T03:09:36.239Z,5.86
2022-12-31T03:14:39.165Z,5.84
2022-12-31T03:20:00.985Z,5.82
2022-12-31T03:25:28.312Z,5.84
2022-12-31T03:30:32.806Z,5.89
2022-12-31T03:35:37.646Z,5.92
2022-12-31T03:40:43.601Z,5.98
2022-12-31T03:45:54.382Z,6.04
2022-12-31T03:50:57.245Z,6.06
2022-12-31T03:56:00.030Z,6.07
2022-12-31T04:01:02.838Z,6.07
2022-12-31T04:06:05.746Z,6.06
2022-12-31T04:11:08.541Z,6.07
2022-12-31T04:16:11.319Z,6.08
2022-12-31T04:21:14.066Z,6.07
2022-12-31T04:26:16.789Z,6.05
2022-12-31T04:31:19.522Z,6.04
2022-12-31T04:36:22.685Z,6.02
2022-12-31T04:41:27.326Z,6.01
2022-12-31T04:46:32.590Z,5.94
2022-12-31T04:51:35.420Z,5.87
2022-12-31T04:56:38.227Z,5.75
2022-12-31T05:01:41.113Z,5.63
2022-12-31T05:06:44.005Z,5.54
2022-12-31T05:11:46.716Z,5.49
2022-12-31T05:16:49.523Z,5.42
2022-12-31T05:22:10.989Z,5.38
2022-12-31T05:27:13.724Z,5.33
2022-12-31T05:32:16.975Z,5.31
2022-12-31T05:37:19.771Z,5.29
2022-12-31T05:42:23.526Z,5.33
2022-12-31T05:47:26.428Z,5.37
2022-12-31T05:52:29.229Z,5.40
2022-12-31T05:57:31.962Z,5.46
2022-12-31T06:02:34.738Z,5.51
2022-12-31T06:07:37.592Z,5.57
2022-12-31T06:12:40.311Z,5.63
2022-12-31T06:17:43.146Z,5.69
2022-12-31T06:22:46.078Z,5.77
2022-12-31T06:27:49.085Z,5.83
2022-12-31T06:32:51.878Z,5.86
2022-12-31T06:37:54.699Z,5.88
2022-12-31T06:43:00.145Z,5.93
2022-12-31T06:48:03.391Z,5.96
2022-12-31T06:53:06.663Z,5.99
2022-12-31T06:58:13.377Z,6.05
2022-12-31T07:03:30.074Z,6.09
2022-12-31T07:08:51.457Z,6.12
2022-12-31T07:14:15.945Z,6.17
2022-12-31T07:19:36.847Z,6.20
2022-12-31T07:24:39.895Z,6.25
2022-12-31T07:30:09.221Z,6.30
2022-12-31T07:35:29.727Z,6.33
2022-12-31T07:40:46.771Z,6.38
2022-12-31T07:45:59.184Z,6.44
2022-12-31T07:51:02.455Z,6.49
2022-12-31T07:56:08.514Z,6.53
2022-12-31T08:01:14.420Z,6.59
2022-12-31T08:06:34.165Z,6.65
2022-12-31T08:11:45.806Z,6.74
2022-12-31T08:16:49.208Z,6.81
2022-12-31T08:22:19.654Z,6.88
2022-12-31T08:27:42.136Z,7.06
2022-12-31T08:33:13.825Z,7.24
2022-12-31T08:38:27.482Z,7.36
2022-12-31T08:44:00.279Z,7.42
2022-12-31T08:49:03.304Z,7.43
2022-12-31T08:54:06.483Z,7.40
2022-12-31T08:59:27.692Z,7.39
2022-12-31T09:04:41.337Z,7.42
2022-12-31T09:09:52.953Z,7.46
2022-12-31T09:15:06.486Z,7.52
2022-12-31T09:20:26.254Z,7.61
2022-12-31T09:25:29.640Z,7.78
2022-12-31T09:30:51.118Z,7.97
2022-12-31T09:36:03.330Z,8.09
2022-12-31T09:41:17.137Z,8.12
2022-12-31T09:46:38.403Z,8.12
2022-12-31T09:51:59.281Z,8.11
2022-12-31T09:57:22.705Z,8.15
2022-12-31T10:02:53.961Z,8.20
2022-12-31T10:08:13.303Z,8.24
2022-12-31T10:13:53.662Z,8.28
2022-12-31T10:19:18.482Z,8.34
2022-12-31T10:24:58.771Z,8.34
2022-12-31T10:30:18.680Z,8.35
2022-12-31T10:35:43.463Z,8.39
2022-12-31T10:41:24.275Z,8.50
2022-12-31T10:47:04.082Z,8.61
2022-12-31T10:52:19.664Z,8.62
2022-12-31T10:57:51.563Z,8.59
2022-12-31T11:03:29.714Z,8.55
2022-12-31T11:08:55.328Z,8.51
2022-12-31T11:14:08.763Z,8.50
2022-12-31T11:19:36.427Z,8.49
2022-12-31T11:25:06.442Z,8.49
2022-12-31T11:30:28.014Z,8.47
2022-12-31T11:35:39.860Z,8.50
2022-12-31T11:41:03.226Z,8.54
2022-12-31T11:46:08.971Z,8.55
2022-12-31T11:51:33.184Z,8.60
2022-12-31T11:56:40.676Z,8.69
2022-12-31T12:02:03.350Z,8.75
2022-12-31T12:07:14.801Z,8.76
2022-12-31T12:12:17.951Z,8.76
2022-12-31T12:17:32.571Z,8.75
2022-12-31T12:22:35.444Z,8.76
2022-12-31T12:27:38.197Z,8.77
2022-12-31T12:33:04.959Z,8.78
2022-12-31T12:38:22.341Z,8.80
2022-12-31T12:43:35.075Z,8.84
2022-12-31T12:48:44.929Z,8.90
2022-12-31T12:53:56.792Z,8.97
2022-12-31T12:59:32.143Z,9.06
2022-12-31T13:05:05.045Z,9.12
2022-12-31T13:10:29.511Z,9.17
2022-12-31T13:15:50.607Z,9.22
2022-12-31T13:21:23.852Z,9.27
2022-12-31T13:26:26.616Z,9.32
2022-12-31T13:31:35.277Z,9.36
2022-12-31T13:36:41.754Z,9.43
2022-12-31T13:42:13.914Z,9.48
2022-12-31T13:47:35.493Z,9.50
2022-12-31T13:52:46.399Z,9.56
2022-12-31T13:58:01.964Z,9.68
2022-12-31T14:03:36.578Z,9.82
2022-12-31T14:08:39.460Z,9.89
2022-12-31T14:14:01.543Z,9.90
2022-12-31T14:19:14.580Z,9.90
2022-12-31T14:24:37.205Z,9.92
2022-12-31T14:29:43.086Z,9.96
2022-12-31T14:35:15.828Z,10.04
2022-12-31T14:40:46.673Z,10.10
2022-12-31T14:46:12.810Z,10.18
2022-12-31T14:51:16.036Z,10.25
2022-12-31T14:56:41.356Z,10.34
2022-12-31T15:01:45.584Z,10.42
2022-12-31T15:07:04.715Z,10.52
2022-12-31T15:12:25.585Z,10.62
2022-12-31T15:17:31.166Z,10.69
2022-12-31T15:22:50.013Z,10.75
2022-12-31T15:27:54.136Z,10.84
2022-12-31T15:33:01.224Z,10.90
2022-12-31T15:38:29.070Z,10.95
2022-12-31T15:43:44.069Z,11.02
2022-12-31T15:49:01.966Z,11.07
2022-12-31T15:54:22.940Z,11.16
2022-12-31T15:59:26.991Z,11.20
2022-12-31T16:04:33.557Z,11.21
2022-12-31T16:09:36.390Z,11.22
2022-12-31T16:14:42.730Z,11.24
2022-12-31T16:19:48.837Z,11.29
2022-12-31T16:25:30.048Z,11.33
2022-12-31T16:30:32.178Z,11.37
2022-12-31T16:35:36.986Z,11.39
2022-12-31T16:40:59.199Z,11.39
2022-12-31T16:46:31.293Z,11.36
2022-12-31T16:51:37.527Z,11.36
2022-12-31T16:56:43.102Z,11.36
2022-12-31T17:01:46.703Z,11.37
2022-12-31T17:06:50.264Z,11.40
2022-12-31T17:11:57.991Z,11.43
2022-12-31T17:17:09.002Z,11.46
2022-12-31T17:22:17.558Z,11.51
2022-12-31T17:27:20.406Z,11.54
2022-12-31T17:32:35.719Z,11.57
2022-12-31T17:37:38.547Z,11.58
2022-12-31T17:42:41.329Z,11.53
2022-12-31T17:47:48.963Z,11.46
2022-12-31T17:52:57.400Z,11.40
2022-12-31T17:58:05.036Z,11.41
2022-12-31T18:03:07.948Z,11.46
2022-12-31T18:08:10.775Z,11.54
2022-12-31T18:13:17.942Z,11.58
2022-12-31T18:18:25.524Z,11.58
2022-12-31T18:23:41.618Z,11.58
2022-12-31T18:28:44.877Z,11.57
2022-12-31T18:33:48.928Z,11.57
2022-12-31T18:38:52.850Z,11.56
2022-12-31T18:43:55.958Z,11.53
2022-12-31T18:48:58.737Z,11.48
2022-12-31T18:54:02.549Z,11.45
2022-12-31T18:59:05.340Z,11.39
2022-12-31T19:04:22.812Z,11.31
2022-12-31T19:14:50.425Z,11.21
2022-12-31T19:19:53.221Z,11.15
2022-12-31T19:24:55.955Z,11.07
2022-12-31T19:30:00.572Z,11.03
2022-12-31T19:35:03.386Z,11.05
2022-12-31T19:40:07.651Z,11.05
2022-12-31T19:45:28.126Z,11.07
2022-12-31T19:50:31.061Z,11.10
2022-12-31T19:55:33.828Z,11.12
2022-12-31T20:00:36.706Z,11.15
2022-12-31T20:05:39.459Z,11.17
2022-12-31T20:10:43.447Z,11.21
2022-12-31T20:15:47.985Z,11.25
2022-12-31T20:20:55.762Z,11.30
2022-12-31T20:25:59.944Z,11.33
2022-12-31T20:31:11.243Z,11.34
2022-12-31T20:36:16.654Z,11.37
2022-12-31T20:41:22.145Z,11.40
2022-12-31T20:46:27.326Z,11.44
2022-12-31T20:51:32.208Z,11.48
2022-12-31T20:56:37.913Z,11.51
2022-12-31T21:02:19.517Z,11.54
2022-12-31T21:07:03.999Z,11.54
2022-12-31T21:12:25.869Z,11.53
2022-12-31T21:17:28.735Z,11.49
2022-12-31T21:22:33.898Z,11.47
2022-12-31T21:27:36.749Z,11.45
2022-12-31T21:32:39.568Z,11.44
2022-12-31T21:37:58.216Z,11.44
2022-12-31T21:43:03.736Z,11.52
2022-12-31T21:48:25.162Z,11.58
2022-12-31T21:53:34.093Z,11.61
2022-12-31T21:58:45.849Z,11.68
2022-12-31T22:03:48.685Z,11.75
2022-12-31T22:08:55.369Z,11.79
2022-12-31T22:13:58.064Z,11.82
2022-12-31T22:19:00.977Z,11.84
2022-12-31T22:24:04.116Z,11.86
2022-12-31T22:29:06.882Z,11.85
2022-12-31T22:34:09.700Z,11.88
2022-12-31T22:39:43.733Z,11.93
2022-12-31T22:44:39.065Z,11.95
2022-12-31T22:49:41.889Z,11.99
2022-12-31T22:54:46.187Z,11.99
2022-12-31T22:59:48.925Z,11.97
2022-12-31T23:04:51.691Z,12.00
2022-12-31T23:10:12.937Z,12.07
2022-12-31T23:15:34.286Z,12.15
2022-12-31T23:20:57.467Z,12.25
2022-12-31T23:26:02.039Z,12.36
2022-12-31T23:31:07.773Z,12.45
2022-12-31T23:36:10.669Z,12.59
2022-12-31T23:41:14.952Z,12.72
2022-12-31T23:46:18.068Z,12.79
2022-12-31T23:51:21.340Z,12.87
2022-12-31T23:56:24.368Z,12.97
